Lamezia Terme Airport LICA

Flugplatz Daten

Name: Lamezia Terme Airport

Ident: LICA

Lat: 38,90539932

Long: 16,24230003

Platzhöhe: 39 ft

IataCode: SUF

City: Lamezia Terme

Metar

2021/08/05 15:20
LICA 051520Z AUTO 27019KT 9999 NCD 29/20 Q1012

Taf

2021/08/05 12:21
TAF LICA 051100Z 0512/0612 27015KT 9999 SCT030
TEMPO 0512/0518 27018G28KT
Gewünschte Webcam nicht vorhanden? Dann fügen Sie eine hinzu. Sie wird dann so schnell wie möglich freigeschaltet
Url: Title: